Time;durP1;ratioP1;P1;durP2;ratioP2;P2;SDS_P1;SDS_P2;PMS_P1;PMS_P2;Temp;Humidity;BMP_temperature;BMP_pressure;BME280_temperature;BME280_humidity;BME280_pressure;Samples;Min_cycle;Max_cycle;Signal;HPM_P1;HPM_P2
2023/07/15 00:00:17;;;;;;;;;;;;;;;21.57;100.00;99842.75;5054616;28;814;-69
2023/07/15 00:02:44;;;;;;;;;;;;;;;21.55;100.00;99842.47;5053856;28;1973;-69
2023/07/15 00:05:20;;;;;;;;;;;;;;;21.57;100.00;99840.75;5054255;28;882;-69
2023/07/15 00:07:48;;;;;;;;;;;;;;;21.59;100.00;99846.69;5054221;28;904;-70
2023/07/15 00:10:17;;;;;;;;;;;;;;;21.58;100.00;99850.72;5054061;28;885;-70
2023/07/15 00:12:44;;;;;;;;;;;;;;;21.52;100.00;99854.69;5053728;28;827;-69
2023/07/15 00:15:11;;;;;;;;;;;;;;;21.47;100.00;99850.47;5035984;28;1085;-69
2023/07/15 00:17:39;;;;;;;;;;;;;;;21.44;100.00;99859.84;5053915;28;834;-68
2023/07/15 00:20:07;;;;;;;;;;;;;;;21.37;100.00;99871.44;5053808;28;868;-68
2023/07/15 00:22:35;;;;;;;;;;;;;;;21.27;100.00;99878.34;5053729;28;1952;-69
2023/07/15 00:25:05;;;;;;;;;;;;;;;21.19;100.00;99875.88;5053743;28;788;-70
2023/07/15 00:27:34;;;;;;;;;;;;;;;21.11;100.00;99863.41;5053631;28;897;-68
2023/07/15 00:30:01;;;;;;;;;;;;;;;21.17;100.00;99872.00;5053585;28;830;-68
2023/07/15 00:32:28;;;;;;;;;;;;;;;21.23;100.00;99872.91;5053474;28;861;-68
2023/07/15 00:34:54;;;;;;;;;;;;;;;21.20;100.00;99871.03;5053656;28;787;-71
2023/07/15 00:37:22;;;;;;;;;;;;;;;21.10;100.00;99873.09;5053602;28;878;-69
2023/07/15 00:39:49;;;;;;;;;;;;;;;21.05;100.00;99867.34;5053757;28;858;-69
2023/07/15 00:42:20;;;;;;;;;;;;;;;21.04;100.00;99862.97;5035425;28;1930;-69
2023/07/15 00:44:47;;;;;;;;;;;;;;;21.02;100.00;99857.84;5035534;28;1441;-71
2023/07/15 00:47:16;;;;;;;;;;;;;;;21.00;100.00;99863.16;5053331;28;1368;-71
2023/07/15 00:49:43;;;;;;;;;;;;;;;21.03;100.00;99869.84;5053283;28;1251;-71
2023/07/15 00:52:12;;;;;;;;;;;;;;;21.11;100.00;99868.25;5053553;28;1241;-71
2023/07/15 00:54:44;;;;;;;;;;;;;;;21.20;100.00;99866.19;5053331;28;791;-71
2023/07/15 00:57:14;;;;;;;;;;;;;;;21.17;100.00;99864.34;5053098;28;877;-71
2023/07/15 00:59:42;;;;;;;;;;;;;;;21.04;100.00;99863.75;5053108;28;897;-71
2023/07/15 01:02:10;;;;;;;;;;;;;;;20.92;100.00;99862.69;5052968;28;1983;-70
2023/07/15 01:04:35;;;;;;;;;;;;;;;20.76;100.00;99860.22;5052975;28;818;-71
2023/07/15 01:07:04;;;;;;;;;;;;;;;20.63;100.00;99866.03;5052961;28;830;-71
2023/07/15 01:09:32;;;;;;;;;;;;;;;20.51;100.00;99862.13;5052807;28;885;-71
2023/07/15 01:12:00;;;;;;;;;;;;;;;20.41;100.00;99869.00;5052821;28;925;-72
2023/07/15 01:14:30;;;;;;;;;;;;;;;20.31;100.00;99867.44;5034996;28;1160;-71
2023/07/15 01:16:57;;;;;;;;;;;;;;;20.22;100.00;99861.84;5052889;28;846;-71
2023/07/15 01:19:24;;;;;;;;;;;;;;;20.16;100.00;99865.28;5052719;28;814;-71
2023/07/15 01:21:50;;;;;;;;;;;;;;;20.23;100.00;99867.00;5052653;28;971;-72
2023/07/15 01:24:18;;;;;;;;;;;;;;;20.28;100.00;99865.56;5052138;28;1943;-72
2023/07/15 01:26:46;;;;;;;;;;;;;;;20.24;100.00;99862.16;5052569;28;887;-74
2023/07/15 01:29:16;;;;;;;;;;;;;;;20.21;100.00;99854.69;5052422;28;873;-74
2023/07/15 01:31:42;;;;;;;;;;;;;;;20.19;100.00;99863.56;5052511;28;815;-73
2023/07/15 01:34:10;;;;;;;;;;;;;;;20.17;100.00;99866.81;5034379;28;1282;-73
2023/07/15 01:36:38;;;;;;;;;;;;;;;20.18;100.00;99868.41;5052402;28;822;-73
2023/07/15 01:39:09;;;;;;;;;;;;;;;20.19;100.00;99867.13;5052458;28;870;-73
2023/07/15 01:41:36;;;;;;;;;;;;;;;20.22;100.00;99867.44;5052164;28;841;-74
2023/07/15 01:44:05;;;;;;;;;;;;;;;20.26;100.00;99871.66;5052253;28;1955;-74
2023/07/15 01:46:34;;;;;;;;;;;;;;;20.29;100.00;99869.94;5052245;28;1017;-74
2023/07/15 01:49:03;;;;;;;;;;;;;;;20.30;100.00;99872.28;5034334;28;1688;-73
2023/07/15 01:51:30;;;;;;;;;;;;;;;20.28;100.00;99871.19;5052020;28;854;-73
2023/07/15 01:53:57;;;;;;;;;;;;;;;20.26;100.00;99868.84;5052092;28;846;-73
2023/07/15 01:56:24;;;;;;;;;;;;;;;20.22;100.00;99870.25;5052202;28;882;-73
2023/07/15 01:58:51;;;;;;;;;;;;;;;20.21;100.00;99866.66;5052152;28;874;-72
2023/07/15 02:01:18;;;;;;;;;;;;;;;20.21;100.00;99874.31;5052123;28;878;-73
2023/07/15 02:03:45;;;;;;;;;;;;;;;20.15;100.00;99872.13;5034152;28;1977;-73
2023/07/15 02:06:13;;;;;;;;;;;;;;;20.08;100.00;99875.25;5052228;28;878;-73
2023/07/15 02:08:40;;;;;;;;;;;;;;;20.02;100.00;99873.53;5052080;28;839;-72
2023/07/15 02:11:07;;;;;;;;;;;;;;;19.98;100.00;99882.84;5052140;28;803;-73
2023/07/15 02:13:34;;;;;;;;;;;;;;;20.03;100.00;99870.22;5052034;28;845;-71
2023/07/15 02:16:01;;;;;;;;;;;;;;;20.04;100.00;99874.59;5052251;28;818;-71
2023/07/15 02:18:28;;;;;;;;;;;;;;;20.03;100.00;99873.03;5052265;28;849;-72
2023/07/15 02:20:54;;;;;;;;;;;;;;;19.99;100.00;99875.22;5051986;28;811;-71
2023/07/15 02:23:22;;;;;;;;;;;;;;;19.91;100.00;99873.97;5051793;28;1951;-71
2023/07/15 02:25:49;;;;;;;;;;;;;;;19.87;100.00;99881.75;5051872;28;846;-72
2023/07/15 02:28:16;;;;;;;;;;;;;;;19.79;100.00;99882.03;5051997;28;814;-72
2023/07/15 02:30:43;;;;;;;;;;;;;;;19.77;100.00;99878.16;5051631;28;822;-72
2023/07/15 02:33:11;;;;;;;;;;;;;;;19.76;100.00;99880.19;5051799;28;854;-70
2023/07/15 02:35:40;;;;;;;;;;;;;;;19.77;100.00;99884.53;5034072;28;1191;-70
2023/07/15 02:38:07;;;;;;;;;;;;;;;19.76;100.00;99888.59;5054834;28;876;-69
2023/07/15 02:40:34;;;;;;;;;;;;;;;19.74;100.00;99885.47;5038173;28;1263;-70
2023/07/15 02:43:01;;;;;;;;;;;;;;;19.71;100.00;99888.41;5055742;28;1959;-71
2023/07/15 02:45:28;;;;;;;;;;;;;;;19.71;100.00;99888.41;5056102;28;888;-70
2023/07/15 02:47:55;;;;;;;;;;;;;;;19.74;100.00;99893.09;5055512;28;1134;-70
2023/07/15 02:50:22;;;;;;;;;;;;;;;19.75;100.00;99889.03;5055685;28;826;-70
2023/07/15 02:52:49;;;;;;;;;;;;;;;19.77;100.00;99890.13;5055941;28;878;-71
2023/07/15 02:55:16;;;;;;;;;;;;;;;19.79;100.00;99889.69;5055823;28;890;-71
2023/07/15 02:57:43;;;;;;;;;;;;;;;19.81;100.00;99892.03;5055673;28;928;-70
2023/07/15 03:00:15;;;;;;;;;;;;;;;19.82;100.00;99894.34;5055511;28;834;-70
2023/07/15 03:02:47;;;;;;;;;;;;;;;19.87;100.00;99899.34;5037568;28;1888;-70
2023/07/15 03:05:15;;;;;;;;;;;;;;;19.90;100.00;99900.44;5055724;28;850;-71
2023/07/15 03:07:44;;;;;;;;;;;;;;;19.93;100.00;99894.69;5055492;28;889;-70
2023/07/15 03:10:12;;;;;;;;;;;;;;;19.99;100.00;99900.47;5055767;28;860;-70
2023/07/15 03:12:39;;;;;;;;;;;;;;;20.04;100.00;99901.88;5055296;28;798;-70
2023/07/15 03:15:07;;;;;;;;;;;;;;;20.08;100.00;99899.69;5055250;28;894;-70
2023/07/15 03:17:35;;;;;;;;;;;;;;;20.12;100.00;99891.91;5055374;28;1008;-70
2023/07/15 03:20:25;;;;;;;;;;;;;;;20.13;100.00;99885.81;5055423;28;846;-70
2023/07/15 03:22:52;;;;;;;;;;;;;;;20.14;100.00;99893.03;5055603;28;1890;-72
2023/07/15 03:25:22;;;;;;;;;;;;;;;20.16;100.00;99898.13;5037069;28;1310;-72
2023/07/15 03:27:49;;;;;;;;;;;;;;;20.20;100.00;99898.78;5055556;28;909;-72
2023/07/15 03:30:16;;;;;;;;;;;;;;;20.25;100.00;99892.56;5054991;28;823;-71
2023/07/15 03:32:44;;;;;;;;;;;;;;;20.31;100.00;99896.31;5054980;28;847;-71
2023/07/15 03:35:12;;;;;;;;;;;;;;;20.36;100.00;99901.28;5054973;28;802;-70
2023/07/15 03:37:39;;;;;;;;;;;;;;;20.44;100.00;99900.97;5055232;28;822;-70
2023/07/15 03:40:08;;;;;;;;;;;;;;;20.56;100.00;99900.03;5037214;28;1196;-71
2023/07/15 03:42:35;;;;;;;;;;;;;;;20.69;100.00;99899.88;5054743;28;1878;-72
2023/07/15 03:45:03;;;;;;;;;;;;;;;20.81;100.00;99896.13;5054927;28;861;-71
2023/07/15 03:47:30;;;;;;;;;;;;;;;20.93;100.00;99905.59;5036090;28;1435;-71
2023/07/15 03:49:58;;;;;;;;;;;;;;;21.01;100.00;99906.84;5054729;28;854;-73
2023/07/15 03:52:25;;;;;;;;;;;;;;;21.13;100.00;99905.09;5054662;28;1350;-73
2023/07/15 03:54:52;;;;;;;;;;;;;;;21.27;100.00;99912.84;5055282;28;799;-72
2023/07/15 03:57:19;;;;;;;;;;;;;;;21.40;100.00;99913.44;5054675;28;1193;-72
2023/07/15 03:59:46;;;;;;;;;;;;;;;21.60;100.00;99921.34;5054796;28;815;-71
2023/07/15 04:02:14;;;;;;;;;;;;;;;21.90;100.00;99921.50;5054496;28;1969;-72
2023/07/15 04:04:41;;;;;;;;;;;;;;;22.24;100.00;99915.84;5054747;28;868;-72
2023/07/15 04:07:08;;;;;;;;;;;;;;;22.48;100.00;99919.38;5036753;28;1289;-73
2023/07/15 04:09:36;;;;;;;;;;;;;;;22.74;100.00;99913.19;5054520;28;897;-72
2023/07/15 04:12:02;;;;;;;;;;;;;;;23.00;100.00;99919.03;5054517;28;877;-72
2023/07/15 04:14:30;;;;;;;;;;;;;;;23.17;100.00;99913.72;5054534;28;901;-72
2023/07/15 04:16:56;;;;;;;;;;;;;;;23.34;100.00;99925.28;5037009;28;1311;-73
2023/07/15 04:19:23;;;;;;;;;;;;;;;23.53;100.00;99917.38;5054415;28;810;-73
2023/07/15 04:21:51;;;;;;;;;;;;;;;23.77;100.00;99931.34;5054586;28;897;-74
2023/07/15 04:24:18;;;;;;;;;;;;;;;23.96;100.00;99927.00;5054096;28;1965;-72
2023/07/15 04:26:45;;;;;;;;;;;;;;;24.12;100.00;99927.72;5054397;28;965;-72
2023/07/15 04:29:11;;;;;;;;;;;;;;;24.24;100.00;99935.06;5054102;28;829;-72
2023/07/15 04:31:39;;;;;;;;;;;;;;;24.31;100.00;99931.03;5054239;28;905;-73
2023/07/15 04:34:05;;;;;;;;;;;;;;;24.34;100.00;99930.03;5054059;28;853;-73
2023/07/15 04:36:31;;;;;;;;;;;;;;;24.40;100.00;99936.53;5054338;28;865;-72
2023/07/15 04:38:58;;;;;;;;;;;;;;;24.46;100.00;99928.91;5053965;28;1187;-72
2023/07/15 04:41:25;;;;;;;;;;;;;;;24.38;100.00;99939.84;5053713;28;850;-74
2023/07/15 04:43:52;;;;;;;;;;;;;;;24.32;100.00;99935.41;5053815;28;1943;-73
2023/07/15 04:46:18;;;;;;;;;;;;;;;24.46;100.00;99940.22;5053497;28;915;-74
2023/07/15 04:48:45;;;;;;;;;;;;;;;24.66;100.00;99947.91;5053308;28;1373;-74
2023/07/15 04:51:12;;;;;;;;;;;;;;;24.88;100.00;99947.38;5053675;28;868;-74
2023/07/15 04:53:43;;;;;;;;;;;;;;;25.06;100.00;99949.84;5053381;28;834;-72
2023/07/15 04:56:10;;;;;;;;;;;;;;;25.29;100.00;99952.91;5053654;28;870;-72
2023/07/15 04:58:37;;;;;;;;;;;;;;;25.57;99.72;99953.13;5053434;28;858;-73
2023/07/15 05:01:04;;;;;;;;;;;;;;;25.92;96.64;99954.16;5052689;28;885;-73
2023/07/15 05:03:32;;;;;;;;;;;;;;;26.27;94.38;99953.84;5053345;28;1977;-74
2023/07/15 05:06:00;;;;;;;;;;;;;;;26.48;92.41;99957.28;5053319;28;945;-73
2023/07/15 05:08:27;;;;;;;;;;;;;;;26.44;92.59;99951.84;5053299;28;843;-77
2023/07/15 05:10:55;;;;;;;;;;;;;;;26.45;92.04;99949.78;5053295;28;826;-74
2023/07/15 05:13:23;;;;;;;;;;;;;;;26.51;91.84;99950.56;5035395;28;858;-75
2023/07/15 05:15:50;;;;;;;;;;;;;;;26.70;90.72;99958.66;5035207;28;1314;-75
2023/07/15 05:18:17;;;;;;;;;;;;;;;26.91;89.03;99948.66;5053472;28;795;-74
2023/07/15 05:20:44;;;;;;;;;;;;;;;27.02;88.11;99951.50;5052949;28;839;-72
2023/07/15 05:23:12;;;;;;;;;;;;;;;27.12;87.17;99954.06;5053002;28;1886;-73
2023/07/15 05:25:40;;;;;;;;;;;;;;;27.28;86.19;99959.78;5035071;28;1337;-76
2023/07/15 05:28:07;;;;;;;;;;;;;;;27.52;84.24;99961.31;5052844;28;815;-74
2023/07/15 05:30:34;;;;;;;;;;;;;;;27.44;84.32;99965.97;5052904;28;854;-74
2023/07/15 05:33:01;;;;;;;;;;;;;;;27.54;83.52;99961.59;5052745;28;867;-76
2023/07/15 05:35:28;;;;;;;;;;;;;;;27.74;83.10;99966.22;5052817;28;865;-75
2023/07/15 05:37:56;;;;;;;;;;;;;;;28.00;80.57;99963.09;5052817;28;822;-75
2023/07/15 05:40:22;;;;;;;;;;;;;;;28.42;75.69;99964.00;5052336;28;866;-75
2023/07/15 05:42:49;;;;;;;;;;;;;;;28.73;71.92;99972.66;5052546;28;1882;-74
2023/07/15 05:45:16;;;;;;;;;;;;;;;29.07;68.58;99971.13;5052715;28;811;-75
2023/07/15 05:47:44;;;;;;;;;;;;;;;29.11;65.31;99970.88;5052512;28;1204;-76
2023/07/15 05:50:11;;;;;;;;;;;;;;;29.04;66.14;99974.25;5052553;28;815;-74
2023/07/15 05:52:38;;;;;;;;;;;;;;;29.35;65.86;99967.31;5052704;28;810;-73
2023/07/15 05:55:05;;;;;;;;;;;;;;;29.61;63.15;99966.06;5052419;28;905;-75
2023/07/15 05:57:32;;;;;;;;;;;;;;;29.77;61.82;99976.56;5052443;28;893;-75
2023/07/15 05:59:59;;;;;;;;;;;;;;;29.98;59.85;99973.22;5052388;28;819;-74
2023/07/15 06:02:26;;;;;;;;;;;;;;;30.20;57.99;99975.84;5034547;28;1960;-74
2023/07/15 06:04:53;;;;;;;;;;;;;;;30.60;56.10;99976.16;5052455;28;814;-74
2023/07/15 06:07:20;;;;;;;;;;;;;;;30.94;53.38;99972.88;5052028;28;860;-74
2023/07/15 06:09:51;;;;;;;;;;;;;;;31.23;50.89;99967.47;5034313;28;1646;-74
2023/07/15 06:12:19;;;;;;;;;;;;;;;31.48;49.05;99979.56;5051996;28;827;-74
2023/07/15 06:14:45;;;;;;;;;;;;;;;31.63;47.50;99979.81;5052271;28;847;-76
2023/07/15 06:17:12;;;;;;;;;;;;;;;31.92;46.58;99986.56;5052036;28;881;-76
2023/07/15 06:19:39;;;;;;;;;;;;;;;32.21;45.17;99977.47;5034165;28;913;-75
2023/07/15 06:22:06;;;;;;;;;;;;;;;32.64;43.86;99982.06;5034210;28;1157;-75
2023/07/15 06:24:34;;;;;;;;;;;;;;;32.98;43.20;99981.31;5052162;28;1886;-75
2023/07/15 06:27:01;;;;;;;;;;;;;;;33.00;42.78;99990.88;5052328;28;830;-76
2023/07/15 06:29:28;;;;;;;;;;;;;;;32.90;42.92;99984.06;5051940;28;886;-74
2023/07/15 06:31:55;;;;;;;;;;;;;;;32.68;42.88;99988.22;5051978;28;893;-74
2023/07/15 06:34:22;;;;;;;;;;;;;;;32.30;44.00;99991.31;5051974;28;885;-76
2023/07/15 06:36:49;;;;;;;;;;;;;;;32.13;44.21;99980.22;5051918;28;811;-75
2023/07/15 06:39:17;;;;;;;;;;;;;;;32.04;45.27;99994.94;5052335;28;806;-73
2023/07/15 06:41:44;;;;;;;;;;;;;;;32.79;43.53;99987.94;5052037;28;850;-75
2023/07/15 06:44:11;;;;;;;;;;;;;;;33.90;40.81;99993.63;5051768;28;1949;-76
2023/07/15 06:46:36;;;;;;;;;;;;;;;34.46;39.62;99988.44;5052618;28;1039;-75
2023/07/15 06:49:03;;;;;;;;;;;;;;;35.33;37.66;99987.59;5051865;28;1272;-76
2023/07/15 06:51:30;;;;;;;;;;;;;;;36.01;36.49;99991.03;5051742;28;893;-76
2023/07/15 06:53:57;;;;;;;;;;;;;;;36.71;34.65;99991.66;5051822;28;897;-75
2023/07/15 06:56:23;;;;;;;;;;;;;;;37.23;34.25;99986.16;5051924;28;905;-76
2023/07/15 06:58:51;;;;;;;;;;;;;;;37.80;33.28;99979.56;5051678;28;992;-75
2023/07/15 07:01:18;;;;;;;;;;;;;;;38.42;32.04;99981.06;5051983;28;827;-76
2023/07/15 07:03:47;;;;;;;;;;;;;;;38.60;31.37;99988.34;5051708;28;1902;-75
2023/07/15 07:06:14;;;;;;;;;;;;;;;38.52;31.78;99984.81;5052297;28;914;-76
2023/07/15 07:08:41;;;;;;;;;;;;;;;38.97;30.65;99989.25;5033749;28;1165;-76
2023/07/15 07:11:08;;;;;;;;;;;;;;;38.74;30.50;99995.28;5051655;28;862;-74
2023/07/15 07:13:36;;;;;;;;;;;;;;;38.38;31.07;99995.91;5051575;28;878;-77
2023/07/15 07:16:02;;;;;;;;;;;;;;;38.50;30.36;99976.00;5033651;28;941;-71
2023/07/15 07:18:29;;;;;;;;;;;;;;;37.95;30.81;99990.19;5051277;28;866;-76
2023/07/15 07:20:56;;;;;;;;;;;;;;;37.92;31.69;99984.88;5051530;28;818;-74
2023/07/15 07:23:24;;;;;;;;;;;;;;;38.14;31.52;99983.88;5053086;28;1885;-74
2023/07/15 07:25:52;;;;;;;;;;;;;;;38.18;30.51;99984.22;5055005;28;859;-76
2023/07/15 07:28:23;;;;;;;;;;;;;;;37.72;31.27;99981.00;5055108;28;830;-76
2023/07/15 07:30:50;;;;;;;;;;;;;;;38.33;30.79;99979.63;5037361;28;1079;-76
2023/07/15 07:33:19;;;;;;;;;;;;;;;38.53;30.44;99980.56;5055043;28;842;-70
2023/07/15 07:35:47;;;;;;;;;;;;;;;38.10;31.26;99974.13;5055303;28;831;-77
2023/07/15 07:38:13;;;;;;;;;;;;;;;37.92;31.24;99971.22;5035019;28;1330;-76
2023/07/15 07:40:44;;;;;;;;;;;;;;;38.04;31.48;99976.50;5054650;28;852;-70
2023/07/15 07:43:12;;;;;;;;;;;;;;;37.79;31.38;99977.31;5054671;28;1945;-74
2023/07/15 07:45:39;;;;;;;;;;;;;;;37.94;31.33;99974.25;5054785;28;1011;-71
2023/07/15 07:48:06;;;;;;;;;;;;;;;37.93;32.05;99977.72;5054488;28;1272;-76
2023/07/15 07:50:35;;;;;;;;;;;;;;;38.20;30.98;99977.88;5036693;28;1300;-74
2023/07/15 07:53:01;;;;;;;;;;;;;;;38.71;30.73;99984.19;5054969;28;833;-74
2023/07/15 07:55:28;;;;;;;;;;;;;;;38.47;30.76;99980.03;5054473;28;881;-72
2023/07/15 07:57:55;;;;;;;;;;;;;;;38.71;30.86;99967.63;5054594;28;856;-76
2023/07/15 08:00:22;;;;;;;;;;;;;;;38.65;30.30;99975.78;5054331;28;799;-72
2023/07/15 08:02:50;;;;;;;;;;;;;;;38.59;30.44;99978.19;5054279;28;1934;-74
2023/07/15 08:05:17;;;;;;;;;;;;;;;38.34;30.92;99976.13;5036323;28;1287;-75
2023/07/15 08:07:45;;;;;;;;;;;;;;;38.55;30.80;99980.72;5054131;28;846;-71
2023/07/15 08:10:12;;;;;;;;;;;;;;;38.33;30.42;99974.63;5054152;28;811;-72
2023/07/15 08:12:39;;;;;;;;;;;;;;;38.26;30.51;99972.59;5054101;28;834;-71
2023/07/15 08:15:06;;;;;;;;;;;;;;;38.49;30.59;99969.44;5054099;28;869;-74
2023/07/15 08:17:33;;;;;;;;;;;;;;;38.75;29.74;99973.75;5054099;28;810;-70
2023/07/15 08:20:00;;;;;;;;;;;;;;;38.50;30.28;99979.66;5053980;28;822;-73
2023/07/15 08:22:28;;;;;;;;;;;;;;;38.30;30.42;99975.81;5036110;28;1936;-72
2023/07/15 08:24:55;;;;;;;;;;;;;;;38.20;30.43;99977.88;5053736;28;889;-71
2023/07/15 08:27:22;;;;;;;;;;;;;;;38.26;30.59;99969.72;5053945;28;861;-74
2023/07/15 08:29:49;;;;;;;;;;;;;;;38.43;30.66;99971.03;5053790;28;843;-72
2023/07/15 08:32:16;;;;;;;;;;;;;;;38.27;31.50;99971.22;5053611;28;827;-72
2023/07/15 08:35:01;;;;;;;;;;;;;;;38.32;30.59;99975.22;5053741;28;866;-71
2023/07/15 08:37:28;;;;;;;;;;;;;;;38.08;30.82;99974.72;5053593;28;816;-70
2023/07/15 08:39:55;;;;;;;;;;;;;;;37.68;31.50;99969.88;5053485;28;862;-72
2023/07/15 08:42:23;;;;;;;;;;;;;;;37.61;32.15;99967.09;5053568;28;1969;-71
2023/07/15 08:44:51;;;;;;;;;;;;;;;37.61;32.10;99969.97;5053322;28;1008;-71
2023/07/15 08:47:20;;;;;;;;;;;;;;;37.45;31.56;99981.59;5053259;28;1212;-73
2023/07/15 08:49:48;;;;;;;;;;;;;;;37.52;32.39;99975.00;5053354;28;869;-73
2023/07/15 08:52:19;;;;;;;;;;;;;;;37.74;32.06;99972.53;5053370;28;830;-74
2023/07/15 08:54:49;;;;;;;;;;;;;;;37.69;32.01;99971.41;5053188;28;881;-73
2023/07/15 08:57:20;;;;;;;;;;;;;;;37.84;32.26;99973.41;5035335;28;1286;-73
2023/07/15 09:00:10;;;;;;;;;;;;;;;37.70;32.39;99972.19;5035169;28;938;-74
2023/07/15 09:02:37;;;;;;;;;;;;;;;37.44;32.76;99982.94;5052963;28;1948;-73
2023/07/15 09:05:06;;;;;;;;;;;;;;;37.72;32.38;99969.47;5053064;28;893;-72
2023/07/15 09:07:32;;;;;;;;;;;;;;;37.53;32.84;99982.28;5052947;28;940;-71
2023/07/15 09:10:05;;;;;;;;;;;;;;;37.28;33.16;99979.44;5052799;28;925;-72
2023/07/15 09:12:31;;;;;;;;;;;;;;;36.96;33.64;99980.19;5052757;28;826;-71
2023/07/15 09:14:57;;;;;;;;;;;;;;;36.79;33.90;99984.50;5052795;28;928;-71
2023/07/15 09:46:31;;;;;;;;;;;;;;;36.33;35.72;99975.25;5735576;23;1606;-57
2023/07/15 09:48:59;;;;;;;;;;;;;;;36.04;36.06;99957.47;5012516;28;885;-57
2023/07/15 09:51:25;;;;;;;;;;;;;;;35.71;36.32;99971.72;5012416;28;826;-57
2023/07/15 09:53:52;;;;;;;;;;;;;;;35.56;37.05;99970.34;5012383;28;882;-57
2023/07/15 09:56:31;;;;;;;;;;;;;;;35.54;36.57;99970.16;5012441;28;838;-57
2023/07/15 09:59:15;;;;;;;;;;;;;;;35.33;36.66;99963.84;5012339;28;861;-56
2023/07/15 10:01:47;;;;;;;;;;;;;;;35.16;37.42;99965.19;5012781;28;854;-57
2023/07/15 10:04:14;;;;;;;;;;;;;;;35.28;37.13;99964.81;5012165;28;1993;-57
2023/07/15 10:06:42;;;;;;;;;;;;;;;35.53;37.24;99965.78;5012367;28;960;-56
2023/07/15 10:09:10;;;;;;;;;;;;;;;35.54;37.01;99960.78;5012029;28;926;-56
2023/07/15 10:11:37;;;;;;;;;;;;;;;35.49;37.32;99967.50;5012221;28;894;-57
2023/07/15 10:14:04;;;;;;;;;;;;;;;35.53;37.09;99962.13;5012232;28;873;-57
2023/07/15 10:16:37;;;;;;;;;;;;;;;35.27;37.24;99958.31;5012070;28;807;-57
2023/07/15 10:19:04;;;;;;;;;;;;;;;35.25;37.09;99963.06;5012117;28;834;-57
2023/07/15 10:21:30;;;;;;;;;;;;;;;35.40;37.45;99957.34;5012080;28;894;-56
2023/07/15 10:24:08;;;;;;;;;;;;;;;35.59;36.25;99956.94;5012000;28;1886;-57
2023/07/15 10:26:35;;;;;;;;;;;;;;;35.27;37.03;99957.50;5012320;28;862;-58
2023/07/15 10:29:03;;;;;;;;;;;;;;;35.28;37.05;99956.94;5011919;28;938;-57
2023/07/15 10:31:30;;;;;;;;;;;;;;;35.43;37.16;99956.19;5012021;28;866;-57
2023/07/15 10:33:56;;;;;;;;;;;;;;;35.67;36.15;99963.47;5011971;28;849;-58
2023/07/15 10:36:35;;;;;;;;;;;;;;;35.69;36.06;99957.16;5011902;28;954;-58
2023/07/15 10:39:12;;;;;;;;;;;;;;;35.83;36.07;99960.59;5011753;28;965;-58
2023/07/15 10:41:46;;;;;;;;;;;;;;;36.06;35.51;99951.91;5011978;28;866;-58
2023/07/15 10:44:36;;;;;;;;;;;;;;;36.29;35.23;99952.63;5011644;28;1886;-58
2023/07/15 10:47:04;;;;;;;;;;;;;;;36.39;34.38;99947.06;5011166;28;2081;-57
2023/07/15 10:49:31;;;;;;;;;;;;;;;36.47;33.98;99956.41;5012089;28;861;-58
2023/07/15 10:51:57;;;;;;;;;;;;;;;36.24;34.39;99959.38;5011730;28;905;-58
2023/07/15 10:54:25;;;;;;;;;;;;;;;36.24;33.96;99955.75;5011987;28;1033;-58
2023/07/15 10:56:52;;;;;;;;;;;;;;;36.24;34.29;99956.50;5011980;28;873;-57
2023/07/15 10:59:40;;;;;;;;;;;;;;;36.60;33.51;99949.63;5014765;28;849;-58
2023/07/15 11:02:07;;;;;;;;;;;;;;;36.91;33.18;99946.59;5015369;28;1156;-58
2023/07/15 11:04:36;;;;;;;;;;;;;;;37.09;33.41;99950.34;5015495;28;1967;-57
2023/07/15 11:07:04;;;;;;;;;;;;;;;37.45;33.21;99941.25;5015427;28;910;-57
2023/07/15 11:09:32;;;;;;;;;;;;;;;37.75;31.80;99934.47;4997821;28;1189;-57
2023/07/15 11:11:59;;;;;;;;;;;;;;;37.64;31.32;99939.94;5015356;28;826;-57
2023/07/15 11:14:29;;;;;;;;;;;;;;;37.54;32.00;99942.72;5015224;28;866;-57
2023/07/15 11:16:56;;;;;;;;;;;;;;;37.58;31.89;99935.19;5015314;28;1347;-58
2023/07/15 11:19:26;;;;;;;;;;;;;;;37.38;31.34;99925.56;5015493;28;861;-58
2023/07/15 11:21:53;;;;;;;;;;;;;;;37.24;32.03;99935.84;5015228;28;823;-59
2023/07/15 11:24:21;;;;;;;;;;;;;;;37.36;31.70;99930.34;5014850;28;1885;-58
2023/07/15 11:26:49;;;;;;;;;;;;;;;37.55;31.50;99938.47;5015054;28;917;-58
2023/07/15 11:29:17;;;;;;;;;;;;;;;37.58;31.40;99934.44;5015007;28;878;-58
2023/07/15 11:31:46;;;;;;;;;;;;;;;37.78;31.45;99938.28;4997328;28;1317;-58
2023/07/15 11:34:17;;;;;;;;;;;;;;;38.01;31.20;99932.25;5015198;28;870;-58
2023/07/15 11:36:44;;;;;;;;;;;;;;;38.42;30.74;99934.88;4997133;28;834;-59
2023/07/15 11:39:12;;;;;;;;;;;;;;;38.17;30.41;99938.63;5014846;28;850;-58
2023/07/15 11:41:39;;;;;;;;;;;;;;;38.24;30.59;99939.91;5014808;28;849;-58
2023/07/15 11:44:13;;;;;;;;;;;;;;;38.76;29.79;99931.94;5014709;28;1886;-58
2023/07/15 11:46:40;;;;;;;;;;;;;;;39.15;29.08;99934.25;5014577;28;1350;-58
2023/07/15 11:49:07;;;;;;;;;;;;;;;39.00;28.77;99929.50;5014716;28;885;-58
2023/07/15 11:51:36;;;;;;;;;;;;;;;38.48;29.83;99930.38;5014586;28;859;-58
2023/07/15 11:54:08;;;;;;;;;;;;;;;38.60;29.64;99928.50;5014797;28;1236;-58
2023/07/15 11:56:43;;;;;;;;;;;;;;;38.58;28.83;99924.69;5014467;28;920;-58
2023/07/15 11:59:12;;;;;;;;;;;;;;;38.80;29.21;99934.38;5014490;28;854;-58
2023/07/15 12:01:39;;;;;;;;;;;;;;;39.16;28.83;99936.56;5014436;28;882;-58
2023/07/15 12:04:16;;;;;;;;;;;;;;;39.53;28.30;99927.88;5014594;28;1914;-58
2023/07/15 12:06:47;;;;;;;;;;;;;;;40.35;27.41;99934.06;5014684;28;815;-59
2023/07/15 12:09:15;;;;;;;;;;;;;;;40.37;26.78;99936.31;5013872;28;842;-58
2023/07/15 12:11:43;;;;;;;;;;;;;;;39.96;26.82;99933.28;5014267;28;838;-58
2023/07/15 12:14:09;;;;;;;;;;;;;;;40.00;27.16;99924.91;5014039;28;901;-58
2023/07/15 12:16:38;;;;;;;;;;;;;;;40.14;27.24;99923.09;5014398;28;831;-58
2023/07/15 12:19:09;;;;;;;;;;;;;;;40.28;27.00;99934.97;5014266;28;819;-58
2023/07/15 12:21:36;;;;;;;;;;;;;;;40.00;26.92;99928.56;5014121;28;877;-59
2023/07/15 12:24:03;;;;;;;;;;;;;;;39.31;27.61;99917.44;5013837;28;1886;-58
2023/07/15 12:26:30;;;;;;;;;;;;;;;39.00;27.96;99921.56;4996307;28;1217;-58
2023/07/15 12:28:57;;;;;;;;;;;;;;;39.27;28.09;99914.25;5014070;28;870;-59
2023/07/15 12:31:24;;;;;;;;;;;;;;;39.06;28.46;99909.75;5013783;28;874;-58
2023/07/15 12:33:51;;;;;;;;;;;;;;;39.75;27.67;99905.69;5014128;28;863;-58
2023/07/15 12:36:18;;;;;;;;;;;;;;;39.88;27.23;99913.19;5013719;28;879;-58
2023/07/15 12:38:45;;;;;;;;;;;;;;;39.72;26.99;99909.03;5013719;28;803;-58
2023/07/15 12:41:13;;;;;;;;;;;;;;;39.66;27.13;99905.66;5013741;28;815;-58
2023/07/15 12:43:39;;;;;;;;;;;;;;;40.11;26.94;99906.91;5017688;28;1953;-58
2023/07/15 12:46:06;;;;;;;;;;;;;;;40.10;27.08;99919.88;5033407;28;1006;-58
2023/07/15 12:48:33;;;;;;;;;;;;;;;39.90;27.11;99910.41;5033169;28;1272;-58
2023/07/15 12:50:59;;;;;;;;;;;;;;;40.04;27.27;99910.00;5033063;28;815;-58
2023/07/15 12:53:26;;;;;;;;;;;;;;;39.96;27.11;99913.03;5015632;28;1276;-58
2023/07/15 12:55:56;;;;;;;;;;;;;;;40.19;26.55;99916.22;5033150;28;819;-58
2023/07/15 12:58:22;;;;;;;;;;;;;;;39.92;26.76;99904.78;5033068;28;815;-59
2023/07/15 13:00:50;;;;;;;;;;;;;;;39.64;27.10;99911.31;5032973;28;922;-58
2023/07/15 13:03:17;;;;;;;;;;;;;;;39.46;27.40;99902.75;5032815;28;1913;-58
2023/07/15 13:05:44;;;;;;;;;;;;;;;40.08;26.55;99887.16;5033012;28;847;-58
2023/07/15 13:08:13;;;;;;;;;;;;;;;39.63;27.16;99898.22;5032826;28;867;-58
2023/07/15 13:10:41;;;;;;;;;;;;;;;39.66;27.03;99891.97;5033176;28;823;-58
2023/07/15 13:13:08;;;;;;;;;;;;;;;39.57;27.11;99896.38;5032665;28;1277;-58
2023/07/15 13:15:35;;;;;;;;;;;;;;;39.45;27.44;99895.44;5033165;28;865;-58
2023/07/15 13:18:02;;;;;;;;;;;;;;;39.13;27.61;99899.44;5032724;28;866;-58
2023/07/15 13:20:28;;;;;;;;;;;;;;;38.56;28.77;99887.00;5032123;28;1170;-59
2023/07/15 13:22:55;;;;;;;;;;;;;;;38.70;28.75;99896.78;5032551;28;1890;-58
2023/07/15 13:25:22;;;;;;;;;;;;;;;38.63;28.56;99891.13;5032536;28;831;-58
2023/07/15 13:27:49;;;;;;;;;;;;;;;38.57;29.24;99902.94;5032596;28;878;-58
2023/07/15 13:30:16;;;;;;;;;;;;;;;39.13;28.61;99902.31;5032501;28;821;-58
2023/07/15 13:32:43;;;;;;;;;;;;;;;39.28;28.23;99898.41;5014784;28;1487;-58